sensor_id;sensor_type;location;lat;lon;timestamp;temperature;humidity
45643;DHT22;31358;46.008;11.144;2023-07-31T00:00:06;21.60;99.90
45643;DHT22;31358;46.008;11.144;2023-07-31T00:02:31;21.60;99.90
45643;DHT22;31358;46.008;11.144;2023-07-31T00:04:58;21.60;99.90
45643;DHT22;31358;46.008;11.144;2023-07-31T00:07:23;21.70;99.90
45643;DHT22;31358;46.008;11.144;2023-07-31T00:09:49;21.70;99.90
45643;DHT22;31358;46.008;11.144;2023-07-31T00:12:14;21.70;99.90
45643;DHT22;31358;46.008;11.144;2023-07-31T00:14:40;21.80;99.90
45643;DHT22;31358;46.008;11.144;2023-07-31T00:17:06;21.80;99.90
45643;DHT22;31358;46.008;11.144;2023-07-31T00:19:31;21.80;99.90
45643;DHT22;31358;46.008;11.144;2023-07-31T00:21:57;21.70;99.90
45643;DHT22;31358;46.008;11.144;2023-07-31T00:24:22;21.70;99.90
45643;DHT22;31358;46.008;11.144;2023-07-31T00:26:48;21.80;99.90
45643;DHT22;31358;46.008;11.144;2023-07-31T00:29:14;21.70;99.90
45643;DHT22;31358;46.008;11.144;2023-07-31T00:31:39;21.70;99.90
45643;DHT22;31358;46.008;11.144;2023-07-31T00:34:05;21.50;99.90
45643;DHT22;31358;46.008;11.144;2023-07-31T00:36:31;21.40;99.90
45643;DHT22;31358;46.008;11.144;2023-07-31T00:38:56;21.40;99.90
45643;DHT22;31358;46.008;11.144;2023-07-31T00:41:22;21.20;99.90
45643;DHT22;31358;46.008;11.144;2023-07-31T00:43:48;21.40;99.90
45643;DHT22;31358;46.008;11.144;2023-07-31T00:46:13;21.50;99.90
45643;DHT22;31358;46.008;11.144;2023-07-31T00:48:39;21.50;99.90
45643;DHT22;31358;46.008;11.144;2023-07-31T00:51:06;21.50;99.90
45643;DHT22;31358;46.008;11.144;2023-07-31T00:53:32;21.40;99.90
45643;DHT22;31358;46.008;11.144;2023-07-31T00:55:57;21.30;99.90
45643;DHT22;31358;46.008;11.144;2023-07-31T00:58:23;21.40;99.90
45643;DHT22;31358;46.008;11.144;2023-07-31T01:00:49;21.40;99.90
45643;DHT22;31358;46.008;11.144;2023-07-31T01:03:16;21.50;99.90
45643;DHT22;31358;46.008;11.144;2023-07-31T01:08:44;21.50;99.90
45643;DHT22;31358;46.008;11.144;2023-07-31T01:11:34;21.50;99.90
45643;DHT22;31358;46.008;11.144;2023-07-31T01:14:03;21.60;99.90
45643;DHT22;31358;46.008;11.144;2023-07-31T01:16:29;21.60;99.90
45643;DHT22;31358;46.008;11.144;2023-07-31T01:18:54;21.70;99.90
45643;DHT22;31358;46.008;11.144;2023-07-31T01:26:45;21.50;99.90
45643;DHT22;31358;46.008;11.144;2023-07-31T01:29:59;21.50;99.90
45643;DHT22;31358;46.008;11.144;2023-07-31T01:32:18;21.50;99.90
45643;DHT22;31358;46.008;11.144;2023-07-31T01:34:44;21.50;99.90
45643;DHT22;31358;46.008;11.144;2023-07-31T01:37:10;21.50;99.90
45643;DHT22;31358;46.008;11.144;2023-07-31T01:39:35;21.50;99.90
45643;DHT22;31358;46.008;11.144;2023-07-31T01:42:01;21.40;99.90
45643;DHT22;31358;46.008;11.144;2023-07-31T01:44:27;21.50;99.90
45643;DHT22;31358;46.008;11.144;2023-07-31T01:46:53;21.50;99.90
45643;DHT22;31358;46.008;11.144;2023-07-31T01:49:18;21.50;99.90
45643;DHT22;31358;46.008;11.144;2023-07-31T01:51:44;21.60;99.90
45643;DHT22;31358;46.008;11.144;2023-07-31T01:54:09;21.50;99.90
45643;DHT22;31358;46.008;11.144;2023-07-31T01:56:36;21.50;99.90
45643;DHT22;31358;46.008;11.144;2023-07-31T01:59:02;21.40;99.90
45643;DHT22;31358;46.008;11.144;2023-07-31T02:01:27;21.50;99.90
45643;DHT22;31358;46.008;11.144;2023-07-31T02:03:53;21.30;99.90
45643;DHT22;31358;46.008;11.144;2023-07-31T02:06:19;21.30;99.90
45643;DHT22;31358;46.008;11.144;2023-07-31T02:08:45;21.30;99.90
45643;DHT22;31358;46.008;11.144;2023-07-31T02:11:10;21.30;99.90
45643;DHT22;31358;46.008;11.144;2023-07-31T02:13:36;21.20;99.90
45643;DHT22;31358;46.008;11.144;2023-07-31T02:16:02;21.10;99.90
45643;DHT22;31358;46.008;11.144;2023-07-31T02:18:27;20.90;99.90
45643;DHT22;31358;46.008;11.144;2023-07-31T02:20:53;20.80;99.90
45643;DHT22;31358;46.008;11.144;2023-07-31T02:23:19;20.70;99.90
45643;DHT22;31358;46.008;11.144;2023-07-31T02:25:45;20.60;99.90
45643;DHT22;31358;46.008;11.144;2023-07-31T02:28:11;20.40;99.90
45643;DHT22;31358;46.008;11.144;2023-07-31T02:30:37;20.30;99.90
45643;DHT22;31358;46.008;11.144;2023-07-31T02:33:03;20.30;99.90
45643;DHT22;31358;46.008;11.144;2023-07-31T02:35:29;20.30;99.90
45643;DHT22;31358;46.008;11.144;2023-07-31T02:37:55;20.40;99.90
45643;DHT22;31358;46.008;11.144;2023-07-31T02:40:20;20.40;99.90
45643;DHT22;31358;46.008;11.144;2023-07-31T02:42:46;20.40;99.90
45643;DHT22;31358;46.008;11.144;2023-07-31T02:45:12;20.50;99.90
45643;DHT22;31358;46.008;11.144;2023-07-31T02:47:38;20.50;99.90
45643;DHT22;31358;46.008;11.144;2023-07-31T02:50:04;20.50;99.90
45643;DHT22;31358;46.008;11.144;2023-07-31T02:52:30;20.50;99.90
45643;DHT22;31358;46.008;11.144;2023-07-31T02:54:57;20.50;99.90
45643;DHT22;31358;46.008;11.144;2023-07-31T02:57:23;20.40;99.90
45643;DHT22;31358;46.008;11.144;2023-07-31T02:59:48;20.40;99.90
45643;DHT22;31358;46.008;11.144;2023-07-31T03:02:15;20.50;99.90
45643;DHT22;31358;46.008;11.144;2023-07-31T03:04:41;20.50;99.90
45643;DHT22;31358;46.008;11.144;2023-07-31T03:07:06;20.40;99.90
45643;DHT22;31358;46.008;11.144;2023-07-31T03:09:32;20.40;99.90
45643;DHT22;31358;46.008;11.144;2023-07-31T03:11:58;20.30;99.90
45643;DHT22;31358;46.008;11.144;2023-07-31T03:14:23;20.30;99.90
45643;DHT22;31358;46.008;11.144;2023-07-31T03:16:51;20.30;99.90
45643;DHT22;31358;46.008;11.144;2023-07-31T03:19:17;20.40;99.90
45643;DHT22;31358;46.008;11.144;2023-07-31T03:21:43;20.40;99.90
45643;DHT22;31358;46.008;11.144;2023-07-31T03:24:08;20.40;99.90
45643;DHT22;31358;46.008;11.144;2023-07-31T03:26:34;20.40;99.90
45643;DHT22;31358;46.008;11.144;2023-07-31T03:29:00;20.30;99.90
45643;DHT22;31358;46.008;11.144;2023-07-31T03:31:26;20.30;99.90
45643;DHT22;31358;46.008;11.144;2023-07-31T03:33:51;20.40;99.90
45643;DHT22;31358;46.008;11.144;2023-07-31T03:36:17;20.40;99.90
45643;DHT22;31358;46.008;11.144;2023-07-31T03:38:43;20.40;99.90
45643;DHT22;31358;46.008;11.144;2023-07-31T03:41:08;20.30;99.90
45643;DHT22;31358;46.008;11.144;2023-07-31T03:43:35;20.30;99.90
45643;DHT22;31358;46.008;11.144;2023-07-31T03:46:01;20.30;99.90
45643;DHT22;31358;46.008;11.144;2023-07-31T03:48:28;20.20;99.90
45643;DHT22;31358;46.008;11.144;2023-07-31T03:50:54;20.30;99.90
45643;DHT22;31358;46.008;11.144;2023-07-31T03:53:20;20.30;99.90
45643;DHT22;31358;46.008;11.144;2023-07-31T03:55:45;20.20;99.90
45643;DHT22;31358;46.008;11.144;2023-07-31T03:58:11;20.20;99.90
45643;DHT22;31358;46.008;11.144;2023-07-31T04:00:37;20.00;99.90
45643;DHT22;31358;46.008;11.144;2023-07-31T04:03:02;20.10;99.90
45643;DHT22;31358;46.008;11.144;2023-07-31T04:05:31;20.10;99.90
45643;DHT22;31358;46.008;11.144;2023-07-31T04:07:57;20.00;99.90
45643;DHT22;31358;46.008;11.144;2023-07-31T04:10:22;20.00;99.90
45643;DHT22;31358;46.008;11.144;2023-07-31T04:12:48;20.00;99.90
45643;DHT22;31358;46.008;11.144;2023-07-31T04:15:14;20.10;99.90
45643;DHT22;31358;46.008;11.144;2023-07-31T04:17:39;20.00;99.90
45643;DHT22;31358;46.008;11.144;2023-07-31T04:20:06;20.10;99.90
45643;DHT22;31358;46.008;11.144;2023-07-31T04:22:31;20.20;99.90
45643;DHT22;31358;46.008;11.144;2023-07-31T04:24:57;20.20;99.90
45643;DHT22;31358;46.008;11.144;2023-07-31T04:27:23;20.20;99.90
45643;DHT22;31358;46.008;11.144;2023-07-31T04:29:48;20.20;99.90
45643;DHT22;31358;46.008;11.144;2023-07-31T04:32:14;20.30;99.90
45643;DHT22;31358;46.008;11.144;2023-07-31T04:34:42;20.30;99.90
45643;DHT22;31358;46.008;11.144;2023-07-31T04:37:08;20.30;99.90
45643;DHT22;31358;46.008;11.144;2023-07-31T04:39:33;20.30;99.90
45643;DHT22;31358;46.008;11.144;2023-07-31T04:41:59;20.20;99.90
45643;DHT22;31358;46.008;11.144;2023-07-31T04:44:25;20.10;99.90
45643;DHT22;31358;46.008;11.144;2023-07-31T04:46:50;20.10;99.90
45643;DHT22;31358;46.008;11.144;2023-07-31T04:49:16;20.10;99.90
45643;DHT22;31358;46.008;11.144;2023-07-31T04:51:42;20.20;99.90
45643;DHT22;31358;46.008;11.144;2023-07-31T04:54:07;20.10;99.90
45643;DHT22;31358;46.008;11.144;2023-07-31T04:56:33;20.20;99.90
45643;DHT22;31358;46.008;11.144;2023-07-31T04:58:59;20.10;99.90
45643;DHT22;31358;46.008;11.144;2023-07-31T05:01:25;20.00;99.90
45643;DHT22;31358;46.008;11.144;2023-07-31T05:03:51;20.00;99.90
45643;DHT22;31358;46.008;11.144;2023-07-31T05:06:16;20.00;99.90
45643;DHT22;31358;46.008;11.144;2023-07-31T05:08:42;20.00;99.90
45643;DHT22;31358;46.008;11.144;2023-07-31T05:11:08;20.00;99.90
45643;DHT22;31358;46.008;11.144;2023-07-31T05:13:33;20.20;99.90
45643;DHT22;31358;46.008;11.144;2023-07-31T05:15:59;20.20;99.90
45643;DHT22;31358;46.008;11.144;2023-07-31T05:18:24;20.20;99.90
45643;DHT22;31358;46.008;11.144;2023-07-31T05:20:50;20.10;99.90
45643;DHT22;31358;46.008;11.144;2023-07-31T05:23:16;20.20;99.90
45643;DHT22;31358;46.008;11.144;2023-07-31T05:25:41;20.20;99.90
45643;DHT22;31358;46.008;11.144;2023-07-31T05:28:07;20.30;99.90
45643;DHT22;31358;46.008;11.144;2023-07-31T05:30:33;20.30;99.90
45643;DHT22;31358;46.008;11.144;2023-07-31T05:32:59;20.10;99.90
45643;DHT22;31358;46.008;11.144;2023-07-31T05:35:24;20.00;99.90
45643;DHT22;31358;46.008;11.144;2023-07-31T05:37:50;20.10;99.90
45643;DHT22;31358;46.008;11.144;2023-07-31T05:40:16;20.10;99.90
45643;DHT22;31358;46.008;11.144;2023-07-31T05:42:41;20.10;99.90
45643;DHT22;31358;46.008;11.144;2023-07-31T05:45:07;20.20;99.90
45643;DHT22;31358;46.008;11.144;2023-07-31T05:47:33;20.20;99.90
45643;DHT22;31358;46.008;11.144;2023-07-31T05:49:59;20.20;99.90
45643;DHT22;31358;46.008;11.144;2023-07-31T05:52:25;20.00;99.90
45643;DHT22;31358;46.008;11.144;2023-07-31T05:54:51;20.10;99.90
45643;DHT22;31358;46.008;11.144;2023-07-31T05:57:17;20.40;99.90
45643;DHT22;31358;46.008;11.144;2023-07-31T05:59:42;20.50;99.90
45643;DHT22;31358;46.008;11.144;2023-07-31T06:02:08;20.60;99.90
45643;DHT22;31358;46.008;11.144;2023-07-31T06:04:34;20.80;99.90
45643;DHT22;31358;46.008;11.144;2023-07-31T06:07:00;20.80;99.90
45643;DHT22;31358;46.008;11.144;2023-07-31T06:09:26;20.90;99.90
45643;DHT22;31358;46.008;11.144;2023-07-31T06:11:52;21.00;99.90
45643;DHT22;31358;46.008;11.144;2023-07-31T06:14:18;20.90;99.90
45643;DHT22;31358;46.008;11.144;2023-07-31T06:16:44;21.00;99.90
45643;DHT22;31358;46.008;11.144;2023-07-31T06:19:10;21.00;99.90
45643;DHT22;31358;46.008;11.144;2023-07-31T06:21:36;21.00;99.90
45643;DHT22;31358;46.008;11.144;2023-07-31T06:24:08;21.00;99.90
45643;DHT22;31358;46.008;11.144;2023-07-31T06:26:33;21.10;99.90
45643;DHT22;31358;46.008;11.144;2023-07-31T06:28:59;21.30;99.90
45643;DHT22;31358;46.008;11.144;2023-07-31T06:31:24;21.40;99.90
45643;DHT22;31358;46.008;11.144;2023-07-31T06:33:51;21.50;99.90
45643;DHT22;31358;46.008;11.144;2023-07-31T06:36:17;21.50;99.90
45643;DHT22;31358;46.008;11.144;2023-07-31T06:38:43;21.40;99.90
45643;DHT22;31358;46.008;11.144;2023-07-31T06:41:09;21.50;99.90
45643;DHT22;31358;46.008;11.144;2023-07-31T06:43:36;21.50;99.90
45643;DHT22;31358;46.008;11.144;2023-07-31T06:46:06;21.60;99.90
45643;DHT22;31358;46.008;11.144;2023-07-31T06:48:33;21.50;99.90
45643;DHT22;31358;46.008;11.144;2023-07-31T06:50:58;21.50;99.90
45643;DHT22;31358;46.008;11.144;2023-07-31T06:53:24;21.50;99.90
45643;DHT22;31358;46.008;11.144;2023-07-31T06:55:50;21.70;99.90
45643;DHT22;31358;46.008;11.144;2023-07-31T06:58:17;21.70;99.90
45643;DHT22;31358;46.008;11.144;2023-07-31T07:00:43;21.90;99.90
45643;DHT22;31358;46.008;11.144;2023-07-31T07:03:09;22.00;99.90
45643;DHT22;31358;46.008;11.144;2023-07-31T07:05:35;22.00;99.90
45643;DHT22;31358;46.008;11.144;2023-07-31T07:08:00;22.10;99.90
45643;DHT22;31358;46.008;11.144;2023-07-31T07:10:26;22.00;99.90
45643;DHT22;31358;46.008;11.144;2023-07-31T07:12:53;21.90;99.90
45643;DHT22;31358;46.008;11.144;2023-07-31T07:15:18;21.90;99.90
45643;DHT22;31358;46.008;11.144;2023-07-31T07:17:44;22.20;99.90
45643;DHT22;31358;46.008;11.144;2023-07-31T07:20:10;22.50;99.90
45643;DHT22;31358;46.008;11.144;2023-07-31T07:22:35;22.30;99.90
45643;DHT22;31358;46.008;11.144;2023-07-31T07:25:02;22.30;99.90
45643;DHT22;31358;46.008;11.144;2023-07-31T07:27:28;22.50;99.90
45643;DHT22;31358;46.008;11.144;2023-07-31T07:29:53;22.80;99.90
45643;DHT22;31358;46.008;11.144;2023-07-31T07:32:19;23.00;99.90
45643;DHT22;31358;46.008;11.144;2023-07-31T07:34:48;22.90;99.90
45643;DHT22;31358;46.008;11.144;2023-07-31T07:37:14;22.60;99.90
45643;DHT22;31358;46.008;11.144;2023-07-31T07:39:40;22.50;99.90
45643;DHT22;31358;46.008;11.144;2023-07-31T07:42:06;22.50;99.90
45643;DHT22;31358;46.008;11.144;2023-07-31T07:44:32;22.40;99.90
45643;DHT22;31358;46.008;11.144;2023-07-31T07:46:57;22.20;99.90
45643;DHT22;31358;46.008;11.144;2023-07-31T07:49:23;22.20;99.90
45643;DHT22;31358;46.008;11.144;2023-07-31T07:51:49;22.30;99.90
45643;DHT22;31358;46.008;11.144;2023-07-31T07:54:15;22.40;99.90
45643;DHT22;31358;46.008;11.144;2023-07-31T07:56:42;22.30;99.90
45643;DHT22;31358;46.008;11.144;2023-07-31T07:59:08;22.40;99.90
45643;DHT22;31358;46.008;11.144;2023-07-31T08:01:34;22.70;99.90
45643;DHT22;31358;46.008;11.144;2023-07-31T08:03:59;22.60;99.90
45643;DHT22;31358;46.008;11.144;2023-07-31T08:06:25;22.80;99.90
45643;DHT22;31358;46.008;11.144;2023-07-31T08:08:51;22.80;99.90
45643;DHT22;31358;46.008;11.144;2023-07-31T08:11:16;22.70;99.90
45643;DHT22;31358;46.008;11.144;2023-07-31T08:13:42;22.60;99.90
45643;DHT22;31358;46.008;11.144;2023-07-31T08:16:08;22.40;99.90
45643;DHT22;31358;46.008;11.144;2023-07-31T08:18:34;22.30;99.90
45643;DHT22;31358;46.008;11.144;2023-07-31T08:21:04;23.30;99.90
45643;DHT22;31358;46.008;11.144;2023-07-31T08:23:30;24.60;99.90
45643;DHT22;31358;46.008;11.144;2023-07-31T08:25:56;24.40;99.90
45643;DHT22;31358;46.008;11.144;2023-07-31T08:28:21;24.70;99.90
45643;DHT22;31358;46.008;11.144;2023-07-31T08:30:47;24.90;99.90
45643;DHT22;31358;46.008;11.144;2023-07-31T08:33:12;25.00;99.90
45643;DHT22;31358;46.008;11.144;2023-07-31T08:35:38;23.90;99.90
45643;DHT22;31358;46.008;11.144;2023-07-31T08:38:04;23.60;99.90
45643;DHT22;31358;46.008;11.144;2023-07-31T08:40:29;23.60;99.90
45643;DHT22;31358;46.008;11.144;2023-07-31T08:42:55;23.50;99.90
45643;DHT22;31358;46.008;11.144;2023-07-31T08:45:28;23.70;99.90
45643;DHT22;31358;46.008;11.144;2023-07-31T08:47:55;23.80;99.80
45643;DHT22;31358;46.008;11.144;2023-07-31T08:50:22;24.00;99.90
45643;DHT22;31358;46.008;11.144;2023-07-31T08:52:49;24.30;99.90
45643;DHT22;31358;46.008;11.144;2023-07-31T08:55:15;24.70;99.90
45643;DHT22;31358;46.008;11.144;2023-07-31T08:57:42;24.90;99.90
45643;DHT22;31358;46.008;11.144;2023-07-31T09:00:09;24.80;99.40
45643;DHT22;31358;46.008;11.144;2023-07-31T09:02:44;24.70;97.20
45643;DHT22;31358;46.008;11.144;2023-07-31T09:05:11;24.80;97.70
45643;DHT22;31358;46.008;11.144;2023-07-31T09:07:37;24.90;98.00
45643;DHT22;31358;46.008;11.144;2023-07-31T09:10:04;25.00;99.10
45643;DHT22;31358;46.008;11.144;2023-07-31T09:12:30;25.20;99.40
45643;DHT22;31358;46.008;11.144;2023-07-31T09:15:00;25.20;98.40
45643;DHT22;31358;46.008;11.144;2023-07-31T09:17:33;25.10;97.50
45643;DHT22;31358;46.008;11.144;2023-07-31T09:20:16;25.10;98.60
45643;DHT22;31358;46.008;11.144;2023-07-31T09:22:42;25.00;97.80
45643;DHT22;31358;46.008;11.144;2023-07-31T09:27:58;24.70;98.20
45643;DHT22;31358;46.008;11.144;2023-07-31T09:30:24;25.00;98.80
45643;DHT22;31358;46.008;11.144;2023-07-31T09:32:51;25.30;98.70
45643;DHT22;31358;46.008;11.144;2023-07-31T09:35:33;25.10;99.50
45643;DHT22;31358;46.008;11.144;2023-07-31T09:38:19;24.90;98.00
45643;DHT22;31358;46.008;11.144;2023-07-31T09:40:49;24.90;99.10
45643;DHT22;31358;46.008;11.144;2023-07-31T09:43:19;24.90;98.80
45643;DHT22;31358;46.008;11.144;2023-07-31T09:45:46;24.60;98.00
45643;DHT22;31358;46.008;11.144;2023-07-31T09:48:13;24.80;98.10
45643;DHT22;31358;46.008;11.144;2023-07-31T09:50:43;25.20;98.40
45643;DHT22;31358;46.008;11.144;2023-07-31T09:53:09;26.00;97.80
45643;DHT22;31358;46.008;11.144;2023-07-31T09:55:36;26.20;98.20
45643;DHT22;31358;46.008;11.144;2023-07-31T09:58:07;26.40;98.10
45643;DHT22;31358;46.008;11.144;2023-07-31T10:00:33;26.20;97.40
45643;DHT22;31358;46.008;11.144;2023-07-31T10:03:01;26.40;97.10
45643;DHT22;31358;46.008;11.144;2023-07-31T10:05:50;26.40;97.70
45643;DHT22;31358;46.008;11.144;2023-07-31T10:08:18;26.30;96.70
45643;DHT22;31358;46.008;11.144;2023-07-31T10:10:46;26.90;97.00
45643;DHT22;31358;46.008;11.144;2023-07-31T10:13:13;26.70;96.40
45643;DHT22;31358;46.008;11.144;2023-07-31T10:15:39;26.60;96.90
45643;DHT22;31358;46.008;11.144;2023-07-31T10:18:07;26.90;96.70
45643;DHT22;31358;46.008;11.144;2023-07-31T10:20:34;26.50;97.30
45643;DHT22;31358;46.008;11.144;2023-07-31T10:23:00;26.40;95.90
45643;DHT22;31358;46.008;11.144;2023-07-31T10:25:27;26.70;97.40
45643;DHT22;31358;46.008;11.144;2023-07-31T10:27:53;26.90;97.40
45643;DHT22;31358;46.008;11.144;2023-07-31T10:30:27;26.90;96.70
45643;DHT22;31358;46.008;11.144;2023-07-31T10:32:56;26.80;96.50
45643;DHT22;31358;46.008;11.144;2023-07-31T10:35:22;27.10;96.60
45643;DHT22;31358;46.008;11.144;2023-07-31T10:37:48;27.10;96.50
45643;DHT22;31358;46.008;11.144;2023-07-31T10:40:32;27.50;96.70
45643;DHT22;31358;46.008;11.144;2023-07-31T10:42:58;27.50;96.40
45643;DHT22;31358;46.008;11.144;2023-07-31T10:45:26;27.20;96.40
45643;DHT22;31358;46.008;11.144;2023-07-31T10:48:00;27.20;96.50
45643;DHT22;31358;46.008;11.144;2023-07-31T10:50:26;27.10;96.80
45643;DHT22;31358;46.008;11.144;2023-07-31T10:52:54;27.20;97.50
45643;DHT22;31358;46.008;11.144;2023-07-31T10:55:41;27.30;96.90
45643;DHT22;31358;46.008;11.144;2023-07-31T10:58:09;27.20;96.60
45643;DHT22;31358;46.008;11.144;2023-07-31T11:00:44;27.20;97.20
45643;DHT22;31358;46.008;11.144;2023-07-31T11:03:13;27.50;97.50
45643;DHT22;31358;46.008;11.144;2023-07-31T11:08:23;27.80;97.00
45643;DHT22;31358;46.008;11.144;2023-07-31T11:11:10;28.00;96.20
45643;DHT22;31358;46.008;11.144;2023-07-31T11:16:05;28.10;97.60
45643;DHT22;31358;46.008;11.144;2023-07-31T11:18:31;28.30;97.00
45643;DHT22;31358;46.008;11.144;2023-07-31T11:20:57;28.30;97.50
45643;DHT22;31358;46.008;11.144;2023-07-31T11:23:23;28.30;97.20
45643;DHT22;31358;46.008;11.144;2023-07-31T11:25:50;28.20;96.10
45643;DHT22;31358;46.008;11.144;2023-07-31T11:28:17;28.10;96.60
45643;DHT22;31358;46.008;11.144;2023-07-31T11:30:45;28.30;96.50
45643;DHT22;31358;46.008;11.144;2023-07-31T11:33:13;28.70;98.30
45643;DHT22;31358;46.008;11.144;2023-07-31T11:35:47;28.70;96.90
45643;DHT22;31358;46.008;11.144;2023-07-31T11:38:26;28.70;96.90
45643;DHT22;31358;46.008;11.144;2023-07-31T11:40:55;28.20;97.10
45643;DHT22;31358;46.008;11.144;2023-07-31T11:43:24;28.40;97.40
45643;DHT22;31358;46.008;11.144;2023-07-31T11:45:53;28.70;97.90
45643;DHT22;31358;46.008;11.144;2023-07-31T11:48:24;28.80;97.90
45643;DHT22;31358;46.008;11.144;2023-07-31T11:50:57;28.80;96.70
45643;DHT22;31358;46.008;11.144;2023-07-31T11:53:41;28.60;96.40
45643;DHT22;31358;46.008;11.144;2023-07-31T11:56:10;28.70;96.30
45643;DHT22;31358;46.008;11.144;2023-07-31T11:58:38;28.80;97.00
45643;DHT22;31358;46.008;11.144;2023-07-31T12:01:04;28.60;97.40
45643;DHT22;31358;46.008;11.144;2023-07-31T12:03:31;28.80;97.10
45643;DHT22;31358;46.008;11.144;2023-07-31T12:05:58;28.90;97.20
45643;DHT22;31358;46.008;11.144;2023-07-31T12:08:25;29.30;97.90
45643;DHT22;31358;46.008;11.144;2023-07-31T12:10:52;29.40;97.70
45643;DHT22;31358;46.008;11.144;2023-07-31T12:13:22;29.40;97.10
45643;DHT22;31358;46.008;11.144;2023-07-31T12:15:49;29.20;96.40
45643;DHT22;31358;46.008;11.144;2023-07-31T12:18:20;29.40;96.80
45643;DHT22;31358;46.008;11.144;2023-07-31T12:20:48;29.40;97.00
45643;DHT22;31358;46.008;11.144;2023-07-31T12:23:28;29.50;96.90
45643;DHT22;31358;46.008;11.144;2023-07-31T12:28:38;29.00;97.00
45643;DHT22;31358;46.008;11.144;2023-07-31T12:31:06;29.20;97.50
45643;DHT22;31358;46.008;11.144;2023-07-31T12:33:35;29.40;97.20
45643;DHT22;31358;46.008;11.144;2023-07-31T12:36:03;29.50;97.20
45643;DHT22;31358;46.008;11.144;2023-07-31T12:38:30;29.30;97.30
45643;DHT22;31358;46.008;11.144;2023-07-31T12:40:55;28.90;97.50
45643;DHT22;31358;46.008;11.144;2023-07-31T12:43:21;29.00;97.30
45643;DHT22;31358;46.008;11.144;2023-07-31T12:45:47;29.50;97.40
45643;DHT22;31358;46.008;11.144;2023-07-31T12:48:13;29.50;97.20
45643;DHT22;31358;46.008;11.144;2023-07-31T12:50:39;28.80;97.70
45643;DHT22;31358;46.008;11.144;2023-07-31T12:53:05;28.90;98.10
45643;DHT22;31358;46.008;11.144;2023-07-31T12:55:34;28.90;97.80
45643;DHT22;31358;46.008;11.144;2023-07-31T12:58:02;29.10;98.00
45643;DHT22;31358;46.008;11.144;2023-07-31T13:00:28;28.90;97.70
45643;DHT22;31358;46.008;11.144;2023-07-31T13:02:53;28.70;98.00
45643;DHT22;31358;46.008;11.144;2023-07-31T13:05:20;28.60;98.30
45643;DHT22;31358;46.008;11.144;2023-07-31T13:07:47;28.80;98.90
45643;DHT22;31358;46.008;11.144;2023-07-31T13:10:13;28.70;98.70
45643;DHT22;31358;46.008;11.144;2023-07-31T13:12:38;28.60;97.90
45643;DHT22;31358;46.008;11.144;2023-07-31T13:15:05;28.60;97.90
45643;DHT22;31358;46.008;11.144;2023-07-31T13:17:31;28.90;98.00
45643;DHT22;31358;46.008;11.144;2023-07-31T13:19:57;29.30;97.80
45643;DHT22;31358;46.008;11.144;2023-07-31T13:22:23;29.10;97.90
45643;DHT22;31358;46.008;11.144;2023-07-31T13:24:49;28.90;98.50
45643;DHT22;31358;46.008;11.144;2023-07-31T13:27:15;28.80;98.40
45643;DHT22;31358;46.008;11.144;2023-07-31T13:29:44;28.80;98.00
45643;DHT22;31358;46.008;11.144;2023-07-31T13:32:10;28.60;98.30
45643;DHT22;31358;46.008;11.144;2023-07-31T13:34:36;28.40;98.30
45643;DHT22;31358;46.008;11.144;2023-07-31T13:37:01;28.40;98.30
45643;DHT22;31358;46.008;11.144;2023-07-31T13:39:27;28.80;98.20
45643;DHT22;31358;46.008;11.144;2023-07-31T13:41:53;29.20;98.20
45643;DHT22;31358;46.008;11.144;2023-07-31T13:44:18;29.60;98.40
45643;DHT22;31358;46.008;11.144;2023-07-31T13:46:44;29.70;97.90
45643;DHT22;31358;46.008;11.144;2023-07-31T13:49:10;29.90;98.40
45643;DHT22;31358;46.008;11.144;2023-07-31T13:51:36;30.30;98.10
45643;DHT22;31358;46.008;11.144;2023-07-31T13:54:03;30.00;97.50
45643;DHT22;31358;46.008;11.144;2023-07-31T13:56:29;29.60;98.10
45643;DHT22;31358;46.008;11.144;2023-07-31T13:58:55;29.20;97.70
45643;DHT22;31358;46.008;11.144;2023-07-31T14:01:20;29.20;98.20
45643;DHT22;31358;46.008;11.144;2023-07-31T14:03:46;29.10;98.30
45643;DHT22;31358;46.008;11.144;2023-07-31T14:06:12;29.00;98.40
45643;DHT22;31358;46.008;11.144;2023-07-31T14:08:37;28.90;98.40
45643;DHT22;31358;46.008;11.144;2023-07-31T14:11:03;28.70;98.00
45643;DHT22;31358;46.008;11.144;2023-07-31T14:13:29;28.60;98.40
45643;DHT22;31358;46.008;11.144;2023-07-31T14:15:55;28.50;98.30
45643;DHT22;31358;46.008;11.144;2023-07-31T14:18:20;28.40;98.50
45643;DHT22;31358;46.008;11.144;2023-07-31T14:20:46;28.40;98.40
45643;DHT22;31358;46.008;11.144;2023-07-31T14:23:12;28.40;98.40
45643;DHT22;31358;46.008;11.144;2023-07-31T14:25:38;28.30;98.00
45643;DHT22;31358;46.008;11.144;2023-07-31T14:28:03;28.40;98.30
45643;DHT22;31358;46.008;11.144;2023-07-31T14:30:30;28.20;98.60
45643;DHT22;31358;46.008;11.144;2023-07-31T14:32:56;28.20;98.20
45643;DHT22;31358;46.008;11.144;2023-07-31T14:35:22;28.20;98.00
45643;DHT22;31358;46.008;11.144;2023-07-31T14:37:47;28.80;98.70
45643;DHT22;31358;46.008;11.144;2023-07-31T14:40:13;29.20;97.80
45643;DHT22;31358;46.008;11.144;2023-07-31T14:42:42;29.40;97.60
45643;DHT22;31358;46.008;11.144;2023-07-31T14:45:08;29.40;96.70
45643;DHT22;31358;46.008;11.144;2023-07-31T14:47:35;29.40;97.30
45643;DHT22;31358;46.008;11.144;2023-07-31T14:50:01;29.80;97.30
45643;DHT22;31358;46.008;11.144;2023-07-31T14:52:27;29.90;97.20
45643;DHT22;31358;46.008;11.144;2023-07-31T14:54:53;30.20;97.10
45643;DHT22;31358;46.008;11.144;2023-07-31T14:57:19;30.30;97.00
45643;DHT22;31358;46.008;11.144;2023-07-31T14:59:45;29.70;96.10
45643;DHT22;31358;46.008;11.144;2023-07-31T15:02:12;29.60;97.10
45643;DHT22;31358;46.008;11.144;2023-07-31T15:04:38;29.50;97.50
45643;DHT22;31358;46.008;11.144;2023-07-31T15:07:04;29.20;97.10
45643;DHT22;31358;46.008;11.144;2023-07-31T15:09:29;29.00;97.10
45643;DHT22;31358;46.008;11.144;2023-07-31T15:11:56;29.10;97.10
45643;DHT22;31358;46.008;11.144;2023-07-31T15:14:22;29.40;97.30
45643;DHT22;31358;46.008;11.144;2023-07-31T15:16:48;29.60;97.40
45643;DHT22;31358;46.008;11.144;2023-07-31T15:19:14;29.30;97.10
45643;DHT22;31358;46.008;11.144;2023-07-31T15:21:40;29.20;97.30
45643;DHT22;31358;46.008;11.144;2023-07-31T15:24:06;29.30;97.00
45643;DHT22;31358;46.008;11.144;2023-07-31T15:26:31;29.30;97.00
45643;DHT22;31358;46.008;11.144;2023-07-31T15:29:05;29.30;96.60
45643;DHT22;31358;46.008;11.144;2023-07-31T15:31:38;29.60;96.60